sensor_id;sensor_type;location;lat;lon;timestamp;temperature;humidity
15111;DHT22;7656;51.954;7.998;2023-03-16T00:02:28;1.40;99.90
15111;DHT22;7656;51.954;7.998;2023-03-16T00:06:49;1.50;99.90
15111;DHT22;7656;51.954;7.998;2023-03-16T00:11:10;1.60;99.90
15111;DHT22;7656;51.954;7.998;2023-03-16T00:15:31;1.70;99.90
15111;DHT22;7656;51.954;7.998;2023-03-16T00:19:54;1.70;99.90
15111;DHT22;7656;51.954;7.998;2023-03-16T00:24:18;1.70;99.90
15111;DHT22;7656;51.954;7.998;2023-03-16T00:28:39;1.70;99.90
15111;DHT22;7656;51.954;7.998;2023-03-16T00:33:03;1.80;99.90
15111;DHT22;7656;51.954;7.998;2023-03-16T00:37:25;1.90;99.90
15111;DHT22;7656;51.954;7.998;2023-03-16T00:41:47;1.60;99.90
15111;DHT22;7656;51.954;7.998;2023-03-16T00:46:11;1.70;99.90
15111;DHT22;7656;51.954;7.998;2023-03-16T00:50:33;1.80;99.90
15111;DHT22;7656;51.954;7.998;2023-03-16T00:54:55;1.70;99.90
15111;DHT22;7656;51.954;7.998;2023-03-16T00:59:16;1.70;99.90
15111;DHT22;7656;51.954;7.998;2023-03-16T01:03:40;1.80;99.90
15111;DHT22;7656;51.954;7.998;2023-03-16T01:08:01;1.80;99.90
15111;DHT22;7656;51.954;7.998;2023-03-16T01:12:24;1.90;99.90
15111;DHT22;7656;51.954;7.998;2023-03-16T01:16:45;1.90;99.90
15111;DHT22;7656;51.954;7.998;2023-03-16T01:21:07;1.90;99.90
15111;DHT22;7656;51.954;7.998;2023-03-16T01:25:29;1.80;99.90
15111;DHT22;7656;51.954;7.998;2023-03-16T01:29:52;1.80;99.90
15111;DHT22;7656;51.954;7.998;2023-03-16T01:34:13;1.80;99.90
15111;DHT22;7656;51.954;7.998;2023-03-16T01:38:38;1.70;99.90
15111;DHT22;7656;51.954;7.998;2023-03-16T01:43:01;1.80;99.90
15111;DHT22;7656;51.954;7.998;2023-03-16T01:47:27;1.90;99.90
15111;DHT22;7656;51.954;7.998;2023-03-16T01:51:49;1.90;99.90
15111;DHT22;7656;51.954;7.998;2023-03-16T01:56:25;2.00;99.90
15111;DHT22;7656;51.954;7.998;2023-03-16T02:00:49;2.10;99.90
15111;DHT22;7656;51.954;7.998;2023-03-16T02:05:19;2.00;99.90
15111;DHT22;7656;51.954;7.998;2023-03-16T02:09:45;1.80;99.90
15111;DHT22;7656;51.954;7.998;2023-03-16T02:14:10;1.70;99.90
15111;DHT22;7656;51.954;7.998;2023-03-16T02:18:32;1.60;99.90
15111;DHT22;7656;51.954;7.998;2023-03-16T02:22:54;1.70;99.90
15111;DHT22;7656;51.954;7.998;2023-03-16T02:27:23;1.90;99.90
15111;DHT22;7656;51.954;7.998;2023-03-16T02:31:49;2.10;99.90
15111;DHT22;7656;51.954;7.998;2023-03-16T02:36:17;2.10;99.90
15111;DHT22;7656;51.954;7.998;2023-03-16T02:40:40;1.90;99.90
15111;DHT22;7656;51.954;7.998;2023-03-16T02:45:05;1.90;99.90
15111;DHT22;7656;51.954;7.998;2023-03-16T02:49:35;1.80;99.90
15111;DHT22;7656;51.954;7.998;2023-03-16T02:53:58;1.80;99.90
15111;DHT22;7656;51.954;7.998;2023-03-16T02:58:21;1.60;99.90
15111;DHT22;7656;51.954;7.998;2023-03-16T03:02:43;1.40;99.90
15111;DHT22;7656;51.954;7.998;2023-03-16T03:07:06;1.30;99.90
15111;DHT22;7656;51.954;7.998;2023-03-16T03:11:43;0.90;99.90
15111;DHT22;7656;51.954;7.998;2023-03-16T03:16:06;0.70;99.90
15111;DHT22;7656;51.954;7.998;2023-03-16T03:20:27;0.70;99.90
15111;DHT22;7656;51.954;7.998;2023-03-16T03:24:49;0.80;99.90
15111;DHT22;7656;51.954;7.998;2023-03-16T03:29:11;0.90;99.90
15111;DHT22;7656;51.954;7.998;2023-03-16T03:33:33;0.90;99.90
15111;DHT22;7656;51.954;7.998;2023-03-16T03:37:54;0.70;99.90
15111;DHT22;7656;51.954;7.998;2023-03-16T03:42:15;0.80;99.90
15111;DHT22;7656;51.954;7.998;2023-03-16T03:46:37;0.80;99.90
15111;DHT22;7656;51.954;7.998;2023-03-16T03:50:58;0.90;99.90
15111;DHT22;7656;51.954;7.998;2023-03-16T03:55:33;0.90;99.90
15111;DHT22;7656;51.954;7.998;2023-03-16T03:59:55;0.80;99.90
15111;DHT22;7656;51.954;7.998;2023-03-16T04:04:36;0.80;99.90
15111;DHT22;7656;51.954;7.998;2023-03-16T04:08:57;0.90;99.90
15111;DHT22;7656;51.954;7.998;2023-03-16T04:13:21;1.10;99.90
15111;DHT22;7656;51.954;7.998;2023-03-16T04:17:43;1.00;99.90
15111;DHT22;7656;51.954;7.998;2023-03-16T04:22:05;1.10;99.90
15111;DHT22;7656;51.954;7.998;2023-03-16T04:26:27;1.40;99.90
15111;DHT22;7656;51.954;7.998;2023-03-16T04:30:48;1.50;99.90
15111;DHT22;7656;51.954;7.998;2023-03-16T04:35:18;1.40;99.90
15111;DHT22;7656;51.954;7.998;2023-03-16T04:39:46;1.40;99.90
15111;DHT22;7656;51.954;7.998;2023-03-16T04:44:08;1.40;99.90
15111;DHT22;7656;51.954;7.998;2023-03-16T04:48:29;1.40;99.90
15111;DHT22;7656;51.954;7.998;2023-03-16T04:52:52;1.40;99.90
15111;DHT22;7656;51.954;7.998;2023-03-16T04:57:14;1.50;99.90
15111;DHT22;7656;51.954;7.998;2023-03-16T05:01:41;1.60;99.90
15111;DHT22;7656;51.954;7.998;2023-03-16T05:06:03;1.70;99.90
15111;DHT22;7656;51.954;7.998;2023-03-16T05:10:27;1.80;99.90
15111;DHT22;7656;51.954;7.998;2023-03-16T05:14:48;1.90;99.90
15111;DHT22;7656;51.954;7.998;2023-03-16T05:19:17;2.00;99.90
15111;DHT22;7656;51.954;7.998;2023-03-16T05:23:38;2.20;99.90
15111;DHT22;7656;51.954;7.998;2023-03-16T05:27:59;2.20;99.90
15111;DHT22;7656;51.954;7.998;2023-03-16T05:32:41;2.20;99.90
15111;DHT22;7656;51.954;7.998;2023-03-16T05:37:03;2.20;99.90
15111;DHT22;7656;51.954;7.998;2023-03-16T05:41:25;2.30;99.90
15111;DHT22;7656;51.954;7.998;2023-03-16T05:45:57;2.30;99.90
15111;DHT22;7656;51.954;7.998;2023-03-16T05:50:19;2.20;99.90
15111;DHT22;7656;51.954;7.998;2023-03-16T05:54:41;2.20;99.90
15111;DHT22;7656;51.954;7.998;2023-03-16T05:59:04;2.30;99.90
15111;DHT22;7656;51.954;7.998;2023-03-16T06:03:26;2.50;99.90
15111;DHT22;7656;51.954;7.998;2023-03-16T06:07:48;2.60;99.90
15111;DHT22;7656;51.954;7.998;2023-03-16T06:12:10;2.80;99.90
15111;DHT22;7656;51.954;7.998;2023-03-16T06:16:33;3.00;99.90
15111;DHT22;7656;51.954;7.998;2023-03-16T06:20:54;3.00;99.90
15111;DHT22;7656;51.954;7.998;2023-03-16T06:25:16;3.10;99.90
15111;DHT22;7656;51.954;7.998;2023-03-16T06:29:39;3.20;99.90
15111;DHT22;7656;51.954;7.998;2023-03-16T06:34:01;3.30;99.90
15111;DHT22;7656;51.954;7.998;2023-03-16T06:38:24;3.40;99.90
15111;DHT22;7656;51.954;7.998;2023-03-16T06:42:53;3.50;99.90
15111;DHT22;7656;51.954;7.998;2023-03-16T06:47:14;3.60;99.90
15111;DHT22;7656;51.954;7.998;2023-03-16T06:51:35;3.60;99.90
15111;DHT22;7656;51.954;7.998;2023-03-16T06:55:56;3.80;99.90
15111;DHT22;7656;51.954;7.998;2023-03-16T07:00:19;3.90;99.90
15111;DHT22;7656;51.954;7.998;2023-03-16T07:04:41;4.00;99.90
15111;DHT22;7656;51.954;7.998;2023-03-16T07:09:03;4.10;99.90
15111;DHT22;7656;51.954;7.998;2023-03-16T07:13:25;4.20;99.90
15111;DHT22;7656;51.954;7.998;2023-03-16T07:17:47;4.40;99.90
15111;DHT22;7656;51.954;7.998;2023-03-16T07:22:08;4.50;99.90
15111;DHT22;7656;51.954;7.998;2023-03-16T07:26:32;4.50;99.90
15111;DHT22;7656;51.954;7.998;2023-03-16T07:30:54;4.70;99.90
15111;DHT22;7656;51.954;7.998;2023-03-16T07:35:15;4.90;99.90
15111;DHT22;7656;51.954;7.998;2023-03-16T07:39:38;5.00;99.90
15111;DHT22;7656;51.954;7.998;2023-03-16T07:44:09;5.10;99.90
15111;DHT22;7656;51.954;7.998;2023-03-16T07:48:31;5.30;99.90
15111;DHT22;7656;51.954;7.998;2023-03-16T07:52:56;5.50;99.90
15111;DHT22;7656;51.954;7.998;2023-03-16T07:57:17;5.90;99.90
15111;DHT22;7656;51.954;7.998;2023-03-16T08:01:38;6.30;99.90
15111;DHT22;7656;51.954;7.998;2023-03-16T08:05:59;6.80;99.90
15111;DHT22;7656;51.954;7.998;2023-03-16T08:10:21;7.80;99.90
15111;DHT22;7656;51.954;7.998;2023-03-16T08:14:49;9.30;99.90
15111;DHT22;7656;51.954;7.998;2023-03-16T08:19:15;9.50;99.90
15111;DHT22;7656;51.954;7.998;2023-03-16T08:23:38;8.10;99.90
15111;DHT22;7656;51.954;7.998;2023-03-16T08:28:01;7.40;99.90
15111;DHT22;7656;51.954;7.998;2023-03-16T08:32:22;8.20;99.90
15111;DHT22;7656;51.954;7.998;2023-03-16T08:36:43;8.60;99.90
15111;DHT22;7656;51.954;7.998;2023-03-16T08:41:07;9.00;99.90
15111;DHT22;7656;51.954;7.998;2023-03-16T08:45:29;8.60;99.90
15111;DHT22;7656;51.954;7.998;2023-03-16T08:49:50;8.70;99.90
15111;DHT22;7656;51.954;7.998;2023-03-16T08:54:13;9.00;99.90
15111;DHT22;7656;51.954;7.998;2023-03-16T08:58:35;9.20;99.90
15111;DHT22;7656;51.954;7.998;2023-03-16T09:02:57;9.30;99.90
15111;DHT22;7656;51.954;7.998;2023-03-16T09:07:18;9.90;99.90
15111;DHT22;7656;51.954;7.998;2023-03-16T09:11:40;12.20;99.90
15111;DHT22;7656;51.954;7.998;2023-03-16T09:16:01;13.30;99.90
15111;DHT22;7656;51.954;7.998;2023-03-16T09:20:23;14.90;99.90
15111;DHT22;7656;51.954;7.998;2023-03-16T09:24:44;12.90;99.90
15111;DHT22;7656;51.954;7.998;2023-03-16T09:29:05;12.40;99.90
15111;DHT22;7656;51.954;7.998;2023-03-16T09:33:26;12.20;99.90
15111;DHT22;7656;51.954;7.998;2023-03-16T09:37:49;12.10;99.90
15111;DHT22;7656;51.954;7.998;2023-03-16T09:42:36;12.30;99.90
15111;DHT22;7656;51.954;7.998;2023-03-16T09:47:00;12.60;99.90
15111;DHT22;7656;51.954;7.998;2023-03-16T10:00:26;10.30;99.90
15111;DHT22;7656;51.954;7.998;2023-03-16T10:05:12;10.00;99.90
15111;DHT22;7656;51.954;7.998;2023-03-16T10:10:01;9.60;99.90
15111;DHT22;7656;51.954;7.998;2023-03-16T10:14:53;9.30;99.90
15111;DHT22;7656;51.954;7.998;2023-03-16T10:23:58;8.70;99.90
15111;DHT22;7656;51.954;7.998;2023-03-16T10:28:23;8.90;99.90
15111;DHT22;7656;51.954;7.998;2023-03-16T10:32:48;9.50;99.90
15111;DHT22;7656;51.954;7.998;2023-03-16T10:37:12;9.20;99.90
15111;DHT22;7656;51.954;7.998;2023-03-16T10:41:36;9.00;99.90
15111;DHT22;7656;51.954;7.998;2023-03-16T10:46:00;8.90;99.90
15111;DHT22;7656;51.954;7.998;2023-03-16T10:50:24;9.20;99.90
15111;DHT22;7656;51.954;7.998;2023-03-16T10:54:49;9.10;99.90
15111;DHT22;7656;51.954;7.998;2023-03-16T11:03:49;8.80;99.90
15111;DHT22;7656;51.954;7.998;2023-03-16T11:08:19;8.70;99.90
15111;DHT22;7656;51.954;7.998;2023-03-16T11:12:46;8.40;99.90
15111;DHT22;7656;51.954;7.998;2023-03-16T11:22:21;8.50;99.90
15111;DHT22;7656;51.954;7.998;2023-03-16T11:26:54;8.40;99.90
15111;DHT22;7656;51.954;7.998;2023-03-16T11:36:54;8.90;99.90
15111;DHT22;7656;51.954;7.998;2023-03-16T11:46:30;9.10;99.90
15111;DHT22;7656;51.954;7.998;2023-03-16T12:04:57;9.70;99.90
15111;DHT22;7656;51.954;7.998;2023-03-16T12:24:30;8.70;99.90
15111;DHT22;7656;51.954;7.998;2023-03-16T12:28:57;8.90;99.90
15111;DHT22;7656;51.954;7.998;2023-03-16T12:43:20;8.60;99.90
15111;DHT22;7656;51.954;7.998;2023-03-16T12:48:41;8.70;99.90
15111;DHT22;7656;51.954;7.998;2023-03-16T12:52:50;8.80;99.90
15111;DHT22;7656;51.954;7.998;2023-03-16T12:57:15;8.80;99.90
15111;DHT22;7656;51.954;7.998;2023-03-16T13:01:41;8.90;99.90
15111;DHT22;7656;51.954;7.998;2023-03-16T13:06:03;9.00;99.90
15111;DHT22;7656;51.954;7.998;2023-03-16T13:10:25;9.10;99.90
15111;DHT22;7656;51.954;7.998;2023-03-16T13:14:46;9.20;99.90
15111;DHT22;7656;51.954;7.998;2023-03-16T13:19:28;9.20;99.90
15111;DHT22;7656;51.954;7.998;2023-03-16T13:23:55;9.80;99.90
15111;DHT22;7656;51.954;7.998;2023-03-16T13:28:19;10.20;99.90
15111;DHT22;7656;51.954;7.998;2023-03-16T13:32:46;10.10;99.90
15111;DHT22;7656;51.954;7.998;2023-03-16T13:37:13;9.90;99.90
15111;DHT22;7656;51.954;7.998;2023-03-16T13:41:36;9.70;99.90
15111;DHT22;7656;51.954;7.998;2023-03-16T13:45:57;9.50;99.90
15111;DHT22;7656;51.954;7.998;2023-03-16T13:50:19;9.40;99.90
15111;DHT22;7656;51.954;7.998;2023-03-16T13:54:40;9.30;99.90
15111;DHT22;7656;51.954;7.998;2023-03-16T13:59:01;9.40;99.90
15111;DHT22;7656;51.954;7.998;2023-03-16T14:03:33;9.50;99.90
15111;DHT22;7656;51.954;7.998;2023-03-16T14:07:57;9.40;99.90
15111;DHT22;7656;51.954;7.998;2023-03-16T14:12:20;9.40;99.90
15111;DHT22;7656;51.954;7.998;2023-03-16T14:16:42;9.60;99.90
15111;DHT22;7656;51.954;7.998;2023-03-16T14:21:11;9.70;99.90
15111;DHT22;7656;51.954;7.998;2023-03-16T14:25:35;10.40;99.90
15111;DHT22;7656;51.954;7.998;2023-03-16T14:30:02;10.70;99.90
15111;DHT22;7656;51.954;7.998;2023-03-16T14:34:39;10.50;99.90
15111;DHT22;7656;51.954;7.998;2023-03-16T14:39:13;10.90;99.90
15111;DHT22;7656;51.954;7.998;2023-03-16T14:43:54;10.80;99.90
15111;DHT22;7656;51.954;7.998;2023-03-16T14:48:20;10.70;99.90
15111;DHT22;7656;51.954;7.998;2023-03-16T14:52:42;10.20;99.90
15111;DHT22;7656;51.954;7.998;2023-03-16T14:57:04;10.10;99.90
15111;DHT22;7656;51.954;7.998;2023-03-16T15:01:25;10.00;99.90
15111;DHT22;7656;51.954;7.998;2023-03-16T15:05:48;10.00;99.90
15111;DHT22;7656;51.954;7.998;2023-03-16T15:14:35;10.00;99.90
15111;DHT22;7656;51.954;7.998;2023-03-16T15:19:14;10.20;99.90
15111;DHT22;7656;51.954;7.998;2023-03-16T15:23:35;10.20;99.90
15111;DHT22;7656;51.954;7.998;2023-03-16T15:27:57;10.30;99.90
15111;DHT22;7656;51.954;7.998;2023-03-16T15:32:18;10.40;99.90
15111;DHT22;7656;51.954;7.998;2023-03-16T15:36:39;10.30;99.90
15111;DHT22;7656;51.954;7.998;2023-03-16T15:41:00;10.50;99.90
15111;DHT22;7656;51.954;7.998;2023-03-16T15:45:22;10.30;99.90
15111;DHT22;7656;51.954;7.998;2023-03-16T15:49:44;10.40;99.90
15111;DHT22;7656;51.954;7.998;2023-03-16T15:54:06;10.50;99.90
15111;DHT22;7656;51.954;7.998;2023-03-16T15:58:30;10.50;99.90
15111;DHT22;7656;51.954;7.998;2023-03-16T16:02:52;10.40;99.90
15111;DHT22;7656;51.954;7.998;2023-03-16T16:07:14;10.30;99.90
15111;DHT22;7656;51.954;7.998;2023-03-16T16:11:36;10.20;99.90
15111;DHT22;7656;51.954;7.998;2023-03-16T16:15:57;10.10;99.90
15111;DHT22;7656;51.954;7.998;2023-03-16T16:20:22;10.10;99.90
15111;DHT22;7656;51.954;7.998;2023-03-16T16:24:46;10.10;99.90
15111;DHT22;7656;51.954;7.998;2023-03-16T16:29:19;10.00;99.90
15111;DHT22;7656;51.954;7.998;2023-03-16T16:33:44;9.90;99.90
15111;DHT22;7656;51.954;7.998;2023-03-16T16:38:05;9.90;99.90
15111;DHT22;7656;51.954;7.998;2023-03-16T16:42:26;9.90;99.90
15111;DHT22;7656;51.954;7.998;2023-03-16T16:46:49;9.90;99.90
15111;DHT22;7656;51.954;7.998;2023-03-16T16:51:19;9.90;99.90
15111;DHT22;7656;51.954;7.998;2023-03-16T16:55:42;9.90;99.90
15111;DHT22;7656;51.954;7.998;2023-03-16T17:00:04;9.90;99.90
15111;DHT22;7656;51.954;7.998;2023-03-16T17:04:28;9.80;99.90
15111;DHT22;7656;51.954;7.998;2023-03-16T17:08:50;9.80;99.90
15111;DHT22;7656;51.954;7.998;2023-03-16T17:13:31;9.60;99.90
15111;DHT22;7656;51.954;7.998;2023-03-16T17:18:11;9.40;99.90
15111;DHT22;7656;51.954;7.998;2023-03-16T17:22:33;9.20;99.90
15111;DHT22;7656;51.954;7.998;2023-03-16T17:26:57;9.10;99.90
15111;DHT22;7656;51.954;7.998;2023-03-16T17:31:22;8.90;99.90
15111;DHT22;7656;51.954;7.998;2023-03-16T17:35:46;8.80;99.90
15111;DHT22;7656;51.954;7.998;2023-03-16T17:40:21;8.60;99.90
15111;DHT22;7656;51.954;7.998;2023-03-16T17:44:47;8.50;99.90
15111;DHT22;7656;51.954;7.998;2023-03-16T17:49:11;8.40;99.90
15111;DHT22;7656;51.954;7.998;2023-03-16T17:53:37;8.30;99.90
15111;DHT22;7656;51.954;7.998;2023-03-16T17:57:58;8.10;99.90
15111;DHT22;7656;51.954;7.998;2023-03-16T18:02:48;8.10;99.90
15111;DHT22;7656;51.954;7.998;2023-03-16T18:07:11;8.00;99.90
15111;DHT22;7656;51.954;7.998;2023-03-16T18:11:35;7.90;99.90
15111;DHT22;7656;51.954;7.998;2023-03-16T18:16:00;7.90;99.90
15111;DHT22;7656;51.954;7.998;2023-03-16T18:20:29;7.90;99.90
15111;DHT22;7656;51.954;7.998;2023-03-16T18:24:53;7.80;99.90
15111;DHT22;7656;51.954;7.998;2023-03-16T18:29:14;7.70;99.90
15111;DHT22;7656;51.954;7.998;2023-03-16T18:33:40;7.70;99.90
15111;DHT22;7656;51.954;7.998;2023-03-16T18:38:01;7.70;99.90
15111;DHT22;7656;51.954;7.998;2023-03-16T18:42:24;7.80;99.90
15111;DHT22;7656;51.954;7.998;2023-03-16T18:46:48;7.80;99.90
15111;DHT22;7656;51.954;7.998;2023-03-16T18:51:12;7.80;99.90
15111;DHT22;7656;51.954;7.998;2023-03-16T18:55:35;7.70;99.90
15111;DHT22;7656;51.954;7.998;2023-03-16T19:00:04;7.80;99.90
15111;DHT22;7656;51.954;7.998;2023-03-16T19:04:28;7.70;99.90
15111;DHT22;7656;51.954;7.998;2023-03-16T19:08:50;7.70;99.90
15111;DHT22;7656;51.954;7.998;2023-03-16T19:13:14;7.70;99.90
15111;DHT22;7656;51.954;7.998;2023-03-16T19:17:38;7.50;99.90
15111;DHT22;7656;51.954;7.998;2023-03-16T19:22:10;7.50;99.90
15111;DHT22;7656;51.954;7.998;2023-03-16T19:26:35;7.40;99.90
15111;DHT22;7656;51.954;7.998;2023-03-16T19:31:00;7.40;99.90
15111;DHT22;7656;51.954;7.998;2023-03-16T19:35:33;7.40;99.90
15111;DHT22;7656;51.954;7.998;2023-03-16T19:39:54;7.40;99.90
15111;DHT22;7656;51.954;7.998;2023-03-16T19:44:19;7.30;99.90
15111;DHT22;7656;51.954;7.998;2023-03-16T19:48:41;7.20;99.90
15111;DHT22;7656;51.954;7.998;2023-03-16T19:53:05;7.10;99.90
15111;DHT22;7656;51.954;7.998;2023-03-16T19:57:34;6.90;99.90
15111;DHT22;7656;51.954;7.998;2023-03-16T20:01:58;6.80;99.90
15111;DHT22;7656;51.954;7.998;2023-03-16T20:06:21;6.80;99.90
15111;DHT22;7656;51.954;7.998;2023-03-16T20:10:43;7.00;99.90
15111;DHT22;7656;51.954;7.998;2023-03-16T20:15:04;7.10;99.90
15111;DHT22;7656;51.954;7.998;2023-03-16T20:19:26;7.30;99.90
15111;DHT22;7656;51.954;7.998;2023-03-16T20:23:51;7.10;99.90
15111;DHT22;7656;51.954;7.998;2023-03-16T20:28:18;7.00;99.90
15111;DHT22;7656;51.954;7.998;2023-03-16T20:32:41;6.80;99.90
15111;DHT22;7656;51.954;7.998;2023-03-16T20:37:24;6.70;99.90
15111;DHT22;7656;51.954;7.998;2023-03-16T20:41:47;6.80;99.90
15111;DHT22;7656;51.954;7.998;2023-03-16T20:46:14;6.80;99.90
15111;DHT22;7656;51.954;7.998;2023-03-16T20:50:37;6.70;99.90
15111;DHT22;7656;51.954;7.998;2023-03-16T20:54:58;6.70;99.90
15111;DHT22;7656;51.954;7.998;2023-03-16T20:59:22;6.70;99.90
15111;DHT22;7656;51.954;7.998;2023-03-16T21:03:45;6.70;99.90
15111;DHT22;7656;51.954;7.998;2023-03-16T21:08:15;6.80;99.90
15111;DHT22;7656;51.954;7.998;2023-03-16T21:12:37;7.00;99.90
15111;DHT22;7656;51.954;7.998;2023-03-16T21:17:01;7.20;99.90
15111;DHT22;7656;51.954;7.998;2023-03-16T21:21:22;7.10;99.90
15111;DHT22;7656;51.954;7.998;2023-03-16T21:25:51;7.00;99.90
15111;DHT22;7656;51.954;7.998;2023-03-16T21:30:29;6.80;99.90
15111;DHT22;7656;51.954;7.998;2023-03-16T21:34:55;6.70;99.90
15111;DHT22;7656;51.954;7.998;2023-03-16T21:39:19;6.60;99.90
15111;DHT22;7656;51.954;7.998;2023-03-16T21:43:42;6.40;99.90
15111;DHT22;7656;51.954;7.998;2023-03-16T21:48:04;6.40;99.90
15111;DHT22;7656;51.954;7.998;2023-03-16T21:52:27;6.40;99.90
15111;DHT22;7656;51.954;7.998;2023-03-16T21:56:48;6.30;99.90
15111;DHT22;7656;51.954;7.998;2023-03-16T22:01:24;6.40;99.90
15111;DHT22;7656;51.954;7.998;2023-03-16T22:05:47;6.40;99.90
15111;DHT22;7656;51.954;7.998;2023-03-16T22:10:13;6.40;99.90
15111;DHT22;7656;51.954;7.998;2023-03-16T22:14:35;6.50;99.90
15111;DHT22;7656;51.954;7.998;2023-03-16T22:18:56;6.60;99.90
15111;DHT22;7656;51.954;7.998;2023-03-16T22:23:30;6.30;99.90
15111;DHT22;7656;51.954;7.998;2023-03-16T22:27:53;6.00;99.90
15111;DHT22;7656;51.954;7.998;2023-03-16T22:32:16;5.80;99.90
15111;DHT22;7656;51.954;7.998;2023-03-16T22:36:39;5.70;99.90
15111;DHT22;7656;51.954;7.998;2023-03-16T22:41:00;5.70;99.90
15111;DHT22;7656;51.954;7.998;2023-03-16T22:45:26;5.80;99.90
15111;DHT22;7656;51.954;7.998;2023-03-16T22:49:48;5.90;99.90
15111;DHT22;7656;51.954;7.998;2023-03-16T22:54:12;5.90;99.90
15111;DHT22;7656;51.954;7.998;2023-03-16T22:58:38;5.90;99.90
15111;DHT22;7656;51.954;7.998;2023-03-16T23:03:01;5.90;99.90
15111;DHT22;7656;51.954;7.998;2023-03-16T23:07:22;6.00;99.90
15111;DHT22;7656;51.954;7.998;2023-03-16T23:11:44;6.00;99.90
15111;DHT22;7656;51.954;7.998;2023-03-16T23:16:17;5.80;99.90
15111;DHT22;7656;51.954;7.998;2023-03-16T23:20:41;5.80;99.90
15111;DHT22;7656;51.954;7.998;2023-03-16T23:25:02;5.80;99.90
15111;DHT22;7656;51.954;7.998;2023-03-16T23:29:24;6.10;99.90
15111;DHT22;7656;51.954;7.998;2023-03-16T23:33:46;5.90;99.90
15111;DHT22;7656;51.954;7.998;2023-03-16T23:38:07;5.90;99.90
15111;DHT22;7656;51.954;7.998;2023-03-16T23:42:28;5.90;99.90
15111;DHT22;7656;51.954;7.998;2023-03-16T23:46:50;6.00;99.90
15111;DHT22;7656;51.954;7.998;2023-03-16T23:51:19;5.80;99.90
15111;DHT22;7656;51.954;7.998;2023-03-16T23:55:42;5.80;99.90
